Time;durP1;ratioP1;P1;durP2;ratioP2;P2;SDS_P1;SDS_P2;PMS_P1;PMS_P2;Temp;Humidity;BMP_temperature;BMP_pressure;BME280_temperature;BME280_humidity;BME280_pressure;Samples;Min_cycle;Max_cycle;Signal;HPM_P1;HPM_P2
2022/05/25 00:01:15;;;;;;;0.40;0.40;;;9.70;99.90;;;;;;5031115;28;20077;-59
2022/05/25 00:03:42;;;;;;;0.52;0.30;;;9.70;99.90;;;;;;5044281;28;20132;-59
2022/05/25 00:06:09;;;;;;;0.40;0.35;;;9.60;99.90;;;;;;5030452;28;20163;-58
2022/05/25 00:08:37;;;;;;;0.22;0.22;;;9.60;99.90;;;;;;5026460;28;20044;-58
2022/05/25 00:11:05;;;;;;;0.20;0.20;;;9.60;99.90;;;;;;5038568;28;20055;-58
2022/05/25 00:13:32;;;;;;;0.30;0.30;;;9.50;99.90;;;;;;5035367;28;20528;-59
2022/05/25 00:15:58;;;;;;;0.20;0.20;;;9.50;99.90;;;;;;5043608;28;20053;-58
2022/05/25 00:18:25;;;;;;;0.30;0.30;;;9.40;99.90;;;;;;5025460;28;20322;-59
2022/05/25 00:20:52;;;;;;;0.20;0.20;;;9.40;99.90;;;;;;5033894;28;20421;-59
2022/05/25 00:23:19;;;;;;;0.30;0.30;;;9.40;99.90;;;;;;5045515;28;20484;-59
2022/05/25 00:25:46;;;;;;;0.22;0.22;;;9.40;99.90;;;;;;5032239;28;20081;-58
2022/05/25 00:28:13;;;;;;;0.65;0.30;;;9.30;99.90;;;;;;5026588;28;20060;-59
2022/05/25 00:30:41;;;;;;;0.28;0.28;;;9.30;99.90;;;;;;5032618;28;20106;-58
2022/05/25 00:33:08;;;;;;;0.20;0.20;;;9.30;99.90;;;;;;5022967;28;20136;-58
2022/05/25 00:35:35;;;;;;;0.20;0.20;;;9.30;99.90;;;;;;5041924;28;20128;-58
2022/05/25 00:38:03;;;;;;;0.75;0.17;;;9.30;99.90;;;;;;5044747;28;20576;-59
2022/05/25 00:40:45;;;;;;;0.15;0.15;;;9.20;99.90;;;;;;5020137;28;20056;-59
2022/05/25 00:43:12;;;;;;;0.57;0.55;;;9.20;99.90;;;;;;5044629;28;20397;-58
2022/05/25 00:45:48;;;;;;;0.60;0.60;;;9.20;99.90;;;;;;5043647;28;20041;-58
2022/05/25 00:48:37;;;;;;;0.20;0.20;;;9.20;99.90;;;;;;5044880;28;20114;-59
2022/05/25 00:51:21;;;;;;;0.20;0.20;;;9.10;99.90;;;;;;5034806;28;20059;-58
2022/05/25 00:54:00;;;;;;;0.35;0.30;;;9.10;99.90;;;;;;5028624;28;20702;-59
2022/05/25 00:56:27;;;;;;;0.30;0.20;;;9.20;99.90;;;;;;5044672;28;20076;-58
2022/05/25 00:59:08;;;;;;;0.22;0.20;;;9.20;99.90;;;;;;5008417;28;20472;-58
2022/05/25 01:01:35;;;;;;;0.20;0.20;;;9.10;99.90;;;;;;5017637;28;20546;-59
2022/05/25 01:04:02;;;;;;;0.30;0.30;;;9.10;99.90;;;;;;5044048;28;20067;-58
2022/05/25 01:07:03;;;;;;;0.22;0.20;;;9.10;99.90;;;;;;5041048;28;20099;-58
2022/05/25 01:09:57;;;;;;;0.38;0.30;;;9.10;99.90;;;;;;5006330;28;20084;-59
2022/05/25 01:12:36;;;;;;;0.28;0.28;;;9.10;99.90;;;;;;5016951;28;20333;-59
2022/05/25 01:15:03;;;;;;;0.28;0.28;;;9.10;99.90;;;;;;5021149;28;20088;-59
2022/05/25 01:17:48;;;;;;;0.28;0.20;;;9.00;99.90;;;;;;5044657;28;20471;-59
2022/05/25 01:20:27;;;;;;;0.30;0.30;;;9.00;99.90;;;;;;5021506;28;20564;-58
2022/05/25 01:23:09;;;;;;;0.28;0.28;;;9.00;99.90;;;;;;5041795;28;20049;-59
2022/05/25 01:25:54;;;;;;;0.38;0.38;;;9.00;99.90;;;;;;5037335;28;20140;-59
2022/05/25 01:28:47;;;;;;;0.40;0.20;;;9.00;99.90;;;;;;5026109;28;20084;-59
2022/05/25 01:31:16;;;;;;;0.40;0.30;;;9.00;99.90;;;;;;5019409;28;20084;-59
2022/05/25 01:33:49;;;;;;;0.65;0.30;;;9.00;99.90;;;;;;5010699;28;20398;-58
2022/05/25 01:36:37;;;;;;;0.20;0.20;;;9.10;99.90;;;;;;5001648;28;20100;-59
2022/05/25 01:39:06;;;;;;;0.55;0.30;;;9.10;99.90;;;;;;5008099;28;20393;-59
2022/05/25 01:41:37;;;;;;;0.30;0.30;;;9.10;99.90;;;;;;5014421;28;20167;-59
2022/05/25 01:44:15;;;;;;;0.30;0.30;;;9.10;99.90;;;;;;5045083;28;20448;-59
2022/05/25 01:46:54;;;;;;;0.57;0.20;;;9.10;99.90;;;;;;5027785;28;20470;-58
2022/05/25 01:49:33;;;;;;;0.63;0.28;;;9.10;99.90;;;;;;5026901;28;20056;-58
2022/05/25 01:52:03;;;;;;;0.38;0.38;;;9.10;99.90;;;;;;4995803;28;20494;-59
2022/05/25 01:54:32;;;;;;;0.30;0.30;;;9.10;99.90;;;;;;5027549;28;20139;-59
2022/05/25 01:57:00;;;;;;;0.45;0.38;;;9.20;99.90;;;;;;5019410;28;20080;-58
2022/05/25 01:59:27;;;;;;;0.35;0.22;;;9.20;99.90;;;;;;5026453;28;20223;-59
2022/05/25 02:05:00;;;;;;;0.20;0.20;;;9.20;99.90;;;;;;5043167;28;20045;-59
2022/05/25 02:07:32;;;;;;;0.10;0.10;;;9.20;99.90;;;;;;5006588;28;20069;-58
2022/05/25 02:10:21;;;;;;;0.60;0.40;;;9.20;99.90;;;;;;5033434;28;20049;-59
2022/05/25 02:13:04;;;;;;;0.20;0.20;;;9.20;99.90;;;;;;5043469;28;20140;-59
2022/05/25 02:15:40;;;;;;;0.38;0.30;;;9.20;99.90;;;;;;5008981;28;20318;-58
2022/05/25 02:18:22;;;;;;;0.75;0.30;;;9.10;99.90;;;;;;5043295;28;20056;-59
2022/05/25 02:21:11;;;;;;;0.28;0.28;;;9.10;99.90;;;;;;5041173;28;20477;-59
2022/05/25 02:23:56;;;;;;;0.20;0.20;;;9.10;99.90;;;;;;5028989;28;20084;-59
2022/05/25 02:26:28;;;;;;;0.13;0.13;;;9.10;99.90;;;;;;5024189;28;20352;-59
2022/05/25 02:29:04;;;;;;;0.55;0.30;;;9.10;99.90;;;;;;5021199;28;20456;-57
2022/05/25 02:31:33;;;;;;;0.30;0.30;;;9.10;99.90;;;;;;5027076;28;20049;-58
2022/05/25 02:34:01;;;;;;;0.30;0.20;;;9.20;99.90;;;;;;5026190;28;20084;-59
2022/05/25 02:36:29;;;;;;;0.30;0.20;;;9.20;99.90;;;;;;5026242;28;20139;-59
2022/05/25 02:38:55;;;;;;;0.30;0.30;;;9.20;99.90;;;;;;5027610;28;20507;-59
2022/05/25 02:41:31;;;;;;;0.28;0.28;;;9.20;99.90;;;;;;5026136;28;20124;-59
2022/05/25 02:43:58;;;;;;;0.25;0.25;;;9.20;99.90;;;;;;5036962;28;20143;-59
2022/05/25 02:46:25;;;;;;;0.30;0.30;;;9.10;99.90;;;;;;5034600;28;20144;-59
2022/05/25 02:48:52;;;;;;;0.30;0.30;;;9.20;99.90;;;;;;5025914;28;20275;-60
2022/05/25 02:51:19;;;;;;;0.25;0.20;;;9.20;99.90;;;;;;5045344;28;20491;-59
2022/05/25 02:53:46;;;;;;;0.20;0.20;;;9.20;99.90;;;;;;5045746;28;20088;-58
2022/05/25 02:56:13;;;;;;;1.05;0.20;;;9.20;99.90;;;;;;5028086;28;20111;-59
2022/05/25 02:58:39;;;;;;;0.38;0.30;;;9.10;99.90;;;;;;5027722;28;20439;-58
2022/05/25 03:01:06;;;;;;;0.40;0.30;;;9.20;99.90;;;;;;5038336;28;20045;-58
2022/05/25 03:03:36;;;;;;;0.20;0.20;;;9.20;99.90;;;;;;5045236;28;20077;-57
2022/05/25 03:06:04;;;;;;;0.20;0.20;;;9.20;99.90;;;;;;5044564;28;20045;-59
2022/05/25 03:08:31;;;;;;;0.50;0.28;;;9.30;99.90;;;;;;5046603;28;20079;-58
2022/05/25 03:10:58;;;;;;;0.20;0.20;;;9.30;99.90;;;;;;5028117;28;20077;-57
2022/05/25 03:13:25;;;;;;;0.20;0.20;;;9.30;99.90;;;;;;5033851;28;20135;-58
2022/05/25 03:15:51;;;;;;;0.22;0.22;;;9.40;99.90;;;;;;5045501;28;20463;-58
2022/05/25 03:18:18;;;;;;;0.82;0.38;;;9.40;99.90;;;;;;5046292;28;20408;-59
2022/05/25 03:20:47;;;;;;;0.28;0.28;;;9.40;99.90;;;;;;5044194;28;20231;-58
2022/05/25 03:23:17;;;;;;;0.30;0.20;;;9.40;99.90;;;;;;5035999;28;20128;-59
2022/05/25 03:25:47;;;;;;;0.20;0.20;;;9.40;99.90;;;;;;5045884;28;20450;-58
2022/05/25 03:28:14;;;;;;;0.20;0.20;;;9.40;99.90;;;;;;5043629;28;20052;-58
2022/05/25 03:30:42;;;;;;;0.17;0.17;;;9.30;99.90;;;;;;5025190;28;20156;-59
2022/05/25 03:33:09;;;;;;;0.22;0.22;;;9.40;99.90;;;;;;5029291;28;20121;-59
2022/05/25 03:35:36;;;;;;;0.68;0.30;;;9.40;99.90;;;;;;5041771;28;20206;-58
2022/05/25 03:38:04;;;;;;;0.20;0.20;;;9.30;99.90;;;;;;5028393;28;20080;-58
2022/05/25 03:40:31;;;;;;;0.32;0.20;;;9.30;99.90;;;;;;5045358;28;20083;-59
2022/05/25 03:42:57;;;;;;;0.45;0.20;;;9.30;99.90;;;;;;5036164;28;20124;-58
2022/05/25 03:45:24;;;;;;;0.55;0.30;;;9.30;99.90;;;;;;5026988;28;20045;-59
2022/05/25 03:47:52;;;;;;;0.43;0.25;;;9.30;99.90;;;;;;5045962;28;20136;-59
2022/05/25 03:50:19;;;;;;;0.22;0.22;;;9.30;99.90;;;;;;5031742;28;20119;-59
2022/05/25 03:52:46;;;;;;;0.50;0.20;;;9.30;99.90;;;;;;5026234;28;20077;-58
2022/05/25 03:55:13;;;;;;;0.30;0.30;;;9.30;99.90;;;;;;5029643;28;20127;-58
2022/05/25 03:57:40;;;;;;;0.77;0.32;;;9.40;99.90;;;;;;5031733;28;20255;-58
2022/05/25 04:00:07;;;;;;;0.30;0.30;;;9.40;99.90;;;;;;5035951;28;20520;-59
2022/05/25 04:02:34;;;;;;;0.25;0.20;;;9.40;99.90;;;;;;5045343;28;20088;-59
2022/05/25 04:05:10;;;;;;;0.52;0.28;;;9.40;99.90;;;;;;5026746;28;20137;-59
2022/05/25 04:07:41;;;;;;;0.20;0.20;;;9.40;99.90;;;;;;5033847;28;20450;-58
2022/05/25 04:10:13;;;;;;;0.20;0.20;;;9.40;99.90;;;;;;5018302;28;20091;-59
2022/05/25 04:12:40;;;;;;;0.30;0.30;;;9.50;99.90;;;;;;5045681;28;20106;-58
2022/05/25 04:15:08;;;;;;;0.20;0.20;;;9.50;99.90;;;;;;5025837;28;20121;-59
2022/05/25 04:17:35;;;;;;;0.55;0.40;;;9.50;99.90;;;;;;5015122;28;20153;-59
2022/05/25 04:20:03;;;;;;;0.75;0.40;;;9.60;99.90;;;;;;5007576;28;20053;-58
2022/05/25 04:22:32;;;;;;;0.22;0.22;;;9.60;99.90;;;;;;5025872;28;20049;-59
2022/05/25 04:24:59;;;;;;;0.38;0.30;;;9.60;99.90;;;;;;5042307;28;20202;-59
2022/05/25 04:27:26;;;;;;;0.70;0.70;;;9.60;99.90;;;;;;5013466;28;20083;-59
2022/05/25 04:29:53;;;;;;;0.40;0.30;;;9.70;99.90;;;;;;5024907;28;20073;-59
2022/05/25 04:32:20;;;;;;;0.32;0.20;;;9.70;99.90;;;;;;5032993;28;20128;-59
2022/05/25 04:34:47;;;;;;;0.30;0.30;;;9.70;99.90;;;;;;5012963;28;20072;-56
2022/05/25 04:39:59;;;;;;;0.22;0.22;;;9.80;99.90;;;;;;5046991;28;20132;-57
2022/05/25 04:42:29;;;;;;;1.20;0.63;;;9.90;99.90;;;;;;5046090;28;20103;-58
2022/05/25 04:45:03;;;;;;;0.35;0.30;;;9.90;99.90;;;;;;5042031;28;20045;-57
2022/05/25 04:47:31;;;;;;;0.20;0.20;;;9.90;99.90;;;;;;5036386;28;20067;-57
2022/05/25 04:49:58;;;;;;;0.57;0.30;;;9.90;99.90;;;;;;5021398;28;20510;-58
2022/05/25 04:52:24;;;;;;;0.30;0.20;;;9.90;99.90;;;;;;5043765;28;20549;-55
2022/05/25 04:54:51;;;;;;;1.75;0.50;;;10.00;99.90;;;;;;5045323;28;20050;-56
2022/05/25 04:57:22;;;;;;;0.40;0.30;;;10.00;99.90;;;;;;5046190;28;20080;-58
2022/05/25 04:59:50;;;;;;;0.50;0.30;;;10.00;99.90;;;;;;5042947;28;20135;-59
2022/05/25 05:02:18;;;;;;;0.50;0.38;;;10.00;99.90;;;;;;5024754;28;20052;-58
2022/05/25 05:04:45;;;;;;;0.40;0.40;;;10.00;99.90;;;;;;5028037;28;20099;-58
2022/05/25 05:07:12;;;;;;;1.23;0.43;;;10.00;99.90;;;;;;5035496;28;20042;-57
2022/05/25 05:09:40;;;;;;;0.43;0.30;;;10.00;99.90;;;;;;5035822;28;20091;-58
2022/05/25 05:12:07;;;;;;;0.68;0.38;;;10.00;99.90;;;;;;5035474;28;20045;-59
2022/05/25 05:14:37;;;;;;;0.50;0.50;;;10.10;99.90;;;;;;5034720;28;20057;-57
2022/05/25 05:17:05;;;;;;;0.52;0.40;;;10.10;99.90;;;;;;5033763;28;20041;-58
2022/05/25 05:19:32;;;;;;;0.47;0.40;;;10.10;99.90;;;;;;5037663;28;20251;-57
2022/05/25 05:21:59;;;;;;;0.60;0.30;;;10.10;99.90;;;;;;5033578;28;20128;-58
2022/05/25 05:24:27;;;;;;;1.10;0.60;;;10.10;99.90;;;;;;5035643;28;20571;-58
2022/05/25 05:26:54;;;;;;;0.75;0.43;;;10.10;99.90;;;;;;5028772;28;20137;-58
2022/05/25 05:29:22;;;;;;;0.32;0.30;;;10.10;99.90;;;;;;5034848;28;20116;-58
2022/05/25 05:31:49;;;;;;;1.02;0.40;;;10.10;99.90;;;;;;5039640;28;20049;-58
2022/05/25 05:34:16;;;;;;;0.85;0.40;;;10.20;99.90;;;;;;5034556;28;20057;-58
2022/05/25 05:36:47;;;;;;;0.38;0.30;;;10.20;99.90;;;;;;5012581;28;20111;-58
2022/05/25 05:39:14;;;;;;;0.40;0.30;;;10.30;99.90;;;;;;5029927;28;20145;-58
2022/05/25 05:41:45;;;;;;;1.00;0.50;;;10.30;99.90;;;;;;5025643;28;20239;-59
2022/05/25 05:44:13;;;;;;;0.50;0.50;;;10.40;99.90;;;;;;5000338;28;20423;-59
2022/05/25 05:46:41;;;;;;;1.00;0.45;;;10.40;99.90;;;;;;5026685;28;20499;-59
2022/05/25 05:49:08;;;;;;;1.35;0.52;;;10.60;99.90;;;;;;5018666;28;20114;-59
2022/05/25 05:51:35;;;;;;;0.47;0.30;;;10.70;99.90;;;;;;5006430;28;20515;-58
2022/05/25 05:54:02;;;;;;;1.48;0.50;;;10.80;99.90;;;;;;5012008;28;20058;-58
2022/05/25 05:56:29;;;;;;;0.85;0.40;;;11.00;99.90;;;;;;5032588;28;20475;-55
2022/05/25 05:58:56;;;;;;;0.30;0.30;;;11.10;99.90;;;;;;5019522;28;20156;-51
2022/05/25 06:01:23;;;;;;;0.95;0.50;;;11.30;99.90;;;;;;5029448;28;20583;-52
2022/05/25 06:03:50;;;;;;;1.90;0.65;;;11.50;99.90;;;;;;5025645;28;20061;-54
2022/05/25 06:06:17;;;;;;;0.73;0.40;;;11.60;99.90;;;;;;5025529;28;20132;-55
2022/05/25 06:08:46;;;;;;;1.10;0.60;;;11.70;99.90;;;;;;5033508;28;20136;-55
2022/05/25 06:11:13;;;;;;;1.00;0.43;;;11.80;99.90;;;;;;5036158;28;20057;-56
2022/05/25 06:13:40;;;;;;;1.52;0.50;;;11.80;99.90;;;;;;5036461;28;21398;-56
2022/05/25 06:21:38;;;;;;;2.15;0.50;;;12.00;99.90;;;;;;5035265;28;20347;-55
2022/05/25 06:24:05;;;;;;;0.77;0.32;;;12.20;99.90;;;;;;5037307;28;20049;-55
2022/05/25 06:26:32;;;;;;;0.40;0.40;;;12.20;99.90;;;;;;5039820;28;20057;-55
2022/05/25 06:28:59;;;;;;;0.50;0.40;;;12.30;99.90;;;;;;5038896;28;20550;-55
2022/05/25 06:31:27;;;;;;;0.88;0.47;;;12.30;99.90;;;;;;5021128;28;20144;-52
2022/05/25 06:33:54;;;;;;;1.88;0.65;;;12.30;99.90;;;;;;5038770;28;20548;-55
2022/05/25 06:36:28;;;;;;;1.35;0.85;;;12.40;99.90;;;;;;5039040;28;20148;-56
2022/05/25 06:38:55;;;;;;;1.00;0.70;;;12.50;99.90;;;;;;5039773;28;20071;-56
2022/05/25 06:41:22;;;;;;;1.08;0.50;;;12.60;99.90;;;;;;5039459;28;20568;-53
2022/05/25 06:43:48;;;;;;;0.70;0.40;;;12.60;99.90;;;;;;5038414;28;20192;-55
2022/05/25 06:46:18;;;;;;;1.77;0.60;;;12.70;99.90;;;;;;5038910;28;20122;-55
2022/05/25 06:48:52;;;;;;;0.73;0.30;;;12.70;99.90;;;;;;5021129;28;20041;-54
2022/05/25 06:51:27;;;;;;;0.77;0.40;;;12.80;99.90;;;;;;5038388;28;20572;-56
2022/05/25 06:53:53;;;;;;;0.88;0.57;;;12.80;99.90;;;;;;5021494;28;20045;-55
2022/05/25 06:56:22;;;;;;;1.83;0.60;;;12.80;99.90;;;;;;5038635;28;20048;-54
2022/05/25 06:58:49;;;;;;;1.17;0.50;;;12.90;99.90;;;;;;5038610;28;20133;-55
2022/05/25 07:01:15;;;;;;;0.90;0.40;;;13.00;99.90;;;;;;5038794;28;20126;-51
2022/05/25 07:03:43;;;;;;;0.52;0.40;;;13.10;99.90;;;;;;5037842;28;20092;-55
2022/05/25 07:06:10;;;;;;;1.20;0.65;;;13.20;99.90;;;;;;5038450;28;20057;-55
2022/05/25 07:08:37;;;;;;;1.33;0.50;;;13.30;99.90;;;;;;5038453;28;20106;-55
2022/05/25 07:11:04;;;;;;;0.55;0.55;;;13.30;99.90;;;;;;5039146;28;20123;-54
2022/05/25 07:13:30;;;;;;;0.93;0.60;;;13.30;99.90;;;;;;5038772;28;20136;-53
2022/05/25 07:15:58;;;;;;;1.33;0.50;;;13.30;99.90;;;;;;5038082;28;20548;-56
2022/05/25 07:18:26;;;;;;;0.85;0.55;;;13.40;99.90;;;;;;5016145;28;20123;-56
2022/05/25 07:20:53;;;;;;;0.50;0.43;;;13.50;99.90;;;;;;5014865;28;20370;-54
2022/05/25 07:23:20;;;;;;;0.90;0.60;;;13.50;99.90;;;;;;5029155;28;20503;-56
2022/05/25 07:25:46;;;;;;;0.77;0.50;;;13.60;99.90;;;;;;5039266;28;20526;-55
2022/05/25 07:28:13;;;;;;;1.95;0.70;;;13.60;99.90;;;;;;5038279;28;20049;-56
2022/05/25 07:30:40;;;;;;;0.90;0.40;;;13.60;99.90;;;;;;5036492;28;20466;-55
2022/05/25 07:33:07;;;;;;;2.05;0.95;;;13.60;99.90;;;;;;5038903;28;20056;-54
2022/05/25 07:35:33;;;;;;;1.02;0.63;;;13.70;99.90;;;;;;5003440;28;20175;-57
2022/05/25 07:38:00;;;;;;;1.75;0.70;;;13.70;99.90;;;;;;5004764;28;20049;-55
2022/05/25 07:40:33;;;;;;;0.88;0.40;;;13.80;99.90;;;;;;5002838;28;20766;-56
2022/05/25 07:43:02;;;;;;;1.20;0.60;;;13.90;99.90;;;;;;5009904;28;20053;-53
2022/05/25 07:45:29;;;;;;;1.15;0.60;;;14.00;99.90;;;;;;5017626;28;20049;-55
2022/05/25 07:47:56;;;;;;;2.13;0.55;;;14.10;99.90;;;;;;5035611;28;20139;-53
2022/05/25 07:50:23;;;;;;;1.05;0.57;;;14.20;99.90;;;;;;5036414;28;20447;-53
2022/05/25 07:52:53;;;;;;;0.70;0.50;;;14.30;99.90;;;;;;5038913;28;20182;-54
2022/05/25 07:55:20;;;;;;;1.08;0.55;;;14.30;99.90;;;;;;5024807;28;20115;-52
2022/05/25 07:57:46;;;;;;;2.20;0.45;;;14.40;99.90;;;;;;5002983;28;20057;-56
2022/05/25 08:00:14;;;;;;;3.78;1.00;;;14.40;99.90;;;;;;5025048;28;20492;-53
2022/05/25 08:05:49;;;;;;;1.67;0.82;;;14.50;99.90;;;;;;5008649;28;20053;-54
2022/05/25 08:08:18;;;;;;;2.45;0.80;;;14.60;99.90;;;;;;5020386;28;20077;-55
2022/05/25 08:10:48;;;;;;;1.83;0.60;;;14.60;99.90;;;;;;5023367;28;20477;-53
2022/05/25 08:13:17;;;;;;;1.67;0.70;;;14.70;99.90;;;;;;5019356;28;20139;-54
2022/05/25 08:15:44;;;;;;;1.67;0.63;;;14.70;99.90;;;;;;5023917;28;20164;-54
2022/05/25 08:18:12;;;;;;;1.75;0.60;;;14.90;99.90;;;;;;5042712;28;20465;-55
2022/05/25 08:20:39;;;;;;;1.17;0.60;;;15.00;99.90;;;;;;5024107;28;20164;-52
2022/05/25 08:23:06;;;;;;;2.35;0.80;;;15.00;99.90;;;;;;5032032;28;20505;-54
2022/05/25 08:25:34;;;;;;;2.38;0.77;;;15.10;99.90;;;;;;5041978;28;20147;-54
2022/05/25 08:28:01;;;;;;;1.88;0.80;;;15.10;99.90;;;;;;5042468;28;20496;-53
2022/05/25 08:30:28;;;;;;;3.20;0.80;;;15.20;99.90;;;;;;5038734;28;20122;-54
2022/05/25 08:32:55;;;;;;;2.92;0.82;;;15.30;99.90;;;;;;5041866;28;20136;-53
2022/05/25 08:35:22;;;;;;;2.10;0.68;;;15.40;99.90;;;;;;5018614;28;20132;-54
2022/05/25 08:37:48;;;;;;;2.70;0.73;;;15.50;99.90;;;;;;5040521;28;20084;-52
2022/05/25 08:40:20;;;;;;;1.73;0.73;;;15.50;99.90;;;;;;5026843;28;20427;-55
2022/05/25 08:42:55;;;;;;;1.75;0.73;;;15.70;99.90;;;;;;5016197;28;20060;-54
2022/05/25 08:47:58;;;;;;;2.45;0.95;;;15.70;99.90;;;;;;1493702;26;20780;-80
2022/05/25 08:50:25;;;;;;;2.08;0.80;;;15.70;99.90;;;;;;4985391;28;20062;-83
2022/05/25 08:52:57;;;;;;;2.17;0.88;;;15.80;99.90;;;;;;5006090;28;20761;-85
2022/05/25 08:55:32;;;;;;;1.58;0.75;;;15.70;99.90;;;;;;5005867;28;20057;-81
2022/05/25 08:58:00;;;;;;;1.95;0.75;;;15.90;99.90;;;;;;5007781;28;20692;-82
2022/05/25 09:00:26;;;;;;;2.30;0.68;;;15.90;99.90;;;;;;4990110;28;20076;-80
2022/05/25 09:03:04;;;;;;;6.30;1.25;;;15.90;99.90;;;;;;5004893;28;20522;-80
2022/05/25 09:05:40;;;;;;;1.63;0.70;;;15.90;99.90;;;;;;5002127;28;20165;-82
2022/05/25 09:08:44;;;;;;;2.65;0.77;;;16.00;99.90;;;;;;4990313;28;20127;-80
2022/05/25 09:11:24;;;;;;;2.25;0.70;;;16.00;99.90;;;;;;5019038;28;20049;-82
2022/05/25 09:13:58;;;;;;;2.05;0.70;;;16.10;99.90;;;;;;4975177;28;20072;-84
2022/05/25 09:16:26;;;;;;;2.70;0.90;;;16.20;99.90;;;;;;5004460;28;20332;-80
2022/05/25 09:18:59;;;;;;;2.92;0.90;;;16.20;99.90;;;;;;5004168;28;20084;-82
2022/05/25 09:21:29;;;;;;;3.35;0.75;;;16.20;99.90;;;;;;5004126;28;20550;-81
2022/05/25 09:23:57;;;;;;;2.60;0.80;;;16.30;99.90;;;;;;5002432;28;20055;-80
2022/05/25 09:26:25;;;;;;;1.45;0.60;;;16.30;99.90;;;;;;4970884;28;20060;-82
2022/05/25 09:29:02;;;;;;;1.55;0.60;;;16.30;99.90;;;;;;4977865;28;20064;-80
2022/05/25 09:31:33;;;;;;;1.45;0.55;;;16.40;99.90;;;;;;4968752;28;20054;-81
2022/05/25 09:34:06;;;;;;;1.38;0.60;;;16.60;99.90;;;;;;4988547;28;20137;-80
2022/05/25 09:36:54;;;;;;;1.50;0.80;;;16.70;99.90;;;;;;5008134;28;20182;-81
2022/05/25 09:39:25;;;;;;;1.42;0.60;;;16.90;99.90;;;;;;5008122;28;20128;-82
2022/05/25 09:41:57;;;;;;;2.13;0.80;;;16.90;99.90;;;;;;5009362;28;20080;-80
2022/05/25 09:44:26;;;;;;;1.83;0.80;;;16.90;99.90;;;;;;4979069;28;20049;-80
2022/05/25 09:47:06;;;;;;;2.55;0.70;;;16.90;99.90;;;;;;4993407;28;20053;-81
2022/05/25 09:49:44;;;;;;;2.95;0.98;;;16.90;99.90;;;;;;4987731;28;20235;-80
2022/05/25 09:52:14;;;;;;;1.95;0.70;;;16.80;99.90;;;;;;4988650;28;20081;-81
2022/05/25 09:54:48;;;;;;;3.10;0.63;;;16.70;99.90;;;;;;4975731;28;20392;-80
2022/05/25 09:57:23;;;;;;;1.40;0.63;;;16.80;99.90;;;;;;4994385;28;20136;-80
2022/05/25 10:00:00;;;;;;;1.58;0.63;;;17.10;99.90;;;;;;4994448;28;20049;-81
2022/05/25 10:02:52;;;;;;;2.78;0.73;;;17.30;99.90;;;;;;4996338;28;20080;-82
2022/05/25 10:05:36;;;;;;;1.83;0.65;;;17.30;99.90;;;;;;4995343;28;20069;-80
2022/05/25 10:08:36;;;;;;;1.70;0.68;;;17.10;99.90;;;;;;4975462;28;20111;-81
2022/05/25 10:11:13;;;;;;;1.10;0.60;;;17.00;99.90;;;;;;4978886;28;20046;-81
2022/05/25 10:13:41;;;;;;;4.85;0.90;;;16.90;99.90;;;;;;5002801;28;20123;-80
2022/05/25 10:16:21;;;;;;;2.45;1.25;;;16.80;99.90;;;;;;4990678;28;20050;-82
2022/05/25 10:18:48;;;;;;;2.95;0.98;;;16.40;99.90;;;;;;5010725;28;20132;-80
2022/05/25 10:21:29;;;;;;;2.15;0.70;;;16.20;99.90;;;;;;4974733;28;20058;-80
2022/05/25 10:23:59;;;;;;;2.63;0.77;;;16.10;99.90;;;;;;4973206;28;20050;-81
2022/05/25 10:26:36;;;;;;;2.38;0.77;;;16.00;99.90;;;;;;4976432;28;20438;-80
2022/05/25 10:29:11;;;;;;;1.98;0.75;;;15.90;99.90;;;;;;4992562;28;20134;-81
2022/05/25 10:37:35;;;;;;;1.40;0.60;;;16.40;99.90;;;;;;4987674;28;20046;-78
2022/05/25 10:40:05;;;;;;;0.45;0.40;;;16.50;99.90;;;;;;4985752;28;20142;-79
2022/05/25 10:42:37;;;;;;;1.50;0.60;;;16.60;99.90;;;;;;5006319;28;20404;-82
2022/05/25 10:45:20;;;;;;;1.70;0.63;;;16.70;99.90;;;;;;5009140;28;20049;-79
2022/05/25 10:47:47;;;;;;;;;;;16.80;99.90;;;;;;4983232;28;20141;-79
2022/05/25 10:50:55;;;;;;;1.67;0.70;;;16.70;99.90;;;;;;5002533;28;19921;-79
2022/05/25 10:54:44;;;;;;;2.40;1.00;;;16.60;99.90;;;;;;5001432;28;20107;-80
2022/05/25 10:57:06;;;;;;;1.67;0.70;;;16.50;99.90;;;;;;4995754;28;20171;-80
2022/05/25 10:59:44;;;;;;;0.88;0.52;;;16.60;99.90;;;;;;4976252;28;20049;-79
2022/05/25 11:02:22;;;;;;;3.40;0.90;;;16.60;99.90;;;;;;4982311;28;20060;-79
2022/05/25 11:05:23;;;;;;;2.08;0.80;;;16.50;99.90;;;;;;5002137;28;20152;-82
2022/05/25 11:07:53;;;;;;;2.92;1.02;;;16.50;99.90;;;;;;5003610;28;20096;-78
2022/05/25 11:10:37;;;;;;;1.25;0.75;;;16.40;99.90;;;;;;5002260;28;20100;-81
2022/05/25 11:13:15;;;;;;;2.20;0.95;;;16.30;99.90;;;;;;4976814;28;20125;-82
2022/05/25 11:15:45;;;;;;;2.65;0.80;;;16.30;99.90;;;;;;4985902;28;20501;-81
2022/05/25 11:18:29;;;;;;;2.50;0.70;;;16.40;99.90;;;;;;5002875;28;20160;-81
2022/05/25 11:21:16;;;;;;;2.92;1.02;;;16.60;99.90;;;;;;5002283;28;20162;-80
2022/05/25 11:24:05;;;;;;;1.80;0.73;;;16.90;99.90;;;;;;5003605;28;20149;-80
2022/05/25 11:27:14;;;;;;;1.95;0.75;;;17.20;99.90;;;;;;4983454;28;20053;-79
2022/05/25 11:29:47;;;;;;;1.33;0.50;;;17.10;99.90;;;;;;4990816;28;20677;-79
2022/05/25 11:32:25;;;;;;;3.80;0.80;;;16.90;99.90;;;;;;5020827;28;20563;-78
2022/05/25 11:35:14;;;;;;;1.95;0.80;;;16.70;99.90;;;;;;4999507;28;20063;-82
2022/05/25 11:37:47;;;;;;;1.48;0.80;;;16.60;99.90;;;;;;5006063;28;20163;-82
2022/05/25 11:40:14;;;;;;;3.33;1.10;;;16.60;99.90;;;;;;5000161;28;20053;-78
2022/05/25 11:42:49;;;;;;;2.92;0.95;;;16.40;99.90;;;;;;5002973;28;20699;-78
2022/05/25 11:45:54;;;;;;;1.92;0.73;;;16.40;99.90;;;;;;5004479;28;20501;-79
2022/05/25 11:49:00;;;;;;;1.83;0.73;;;16.40;99.90;;;;;;4999328;28;20061;-78
2022/05/25 11:51:46;;;;;;;2.17;1.00;;;16.40;99.90;;;;;;4982373;28;20490;-78
2022/05/25 11:54:15;;;;;;;2.70;0.82;;;16.40;99.90;;;;;;5018468;28;20140;-78
2022/05/25 11:56:57;;;;;;;2.03;0.60;;;16.40;99.90;;;;;;5023597;28;20566;-81
2022/05/25 11:59:52;;;;;;;2.05;0.85;;;16.50;99.90;;;;;;4983371;28;20144;-80
2022/05/25 12:02:19;;;;;;;1.13;0.60;;;16.60;99.90;;;;;;4995885;28;20140;-79
2022/05/25 12:05:08;;;;;;;1.35;0.95;;;16.70;99.90;;;;;;5022125;28;20038;-79
2022/05/25 12:08:05;;;;;;;1.65;0.60;;;16.70;99.90;;;;;;5023616;28;20618;-79
2022/05/25 12:10:43;;;;;;;1.88;0.65;;;16.60;99.90;;;;;;4977092;28;20057;-80
2022/05/25 12:13:38;;;;;;;1.13;0.57;;;16.70;99.90;;;;;;4987011;28;20089;-81
2022/05/25 12:16:26;;;;;;;1.02;0.60;;;16.90;99.90;;;;;;4987676;28;20649;-80
2022/05/25 12:19:14;;;;;;;1.20;0.70;;;17.10;99.90;;;;;;4978581;28;20149;-79
2022/05/25 12:21:52;;;;;;;2.30;0.80;;;17.50;99.90;;;;;;4991806;28;20790;-84
2022/05/25 12:24:24;;;;;;;2.42;0.85;;;17.70;99.90;;;;;;5007188;28;20110;-81
2022/05/25 12:26:51;;;;;;;1.02;0.60;;;17.50;99.90;;;;;;5008800;28;20437;-82
2022/05/25 12:29:36;;;;;;;2.15;0.85;;;17.40;99.90;;;;;;4991162;28;20152;-80
2022/05/25 12:32:04;;;;;;;2.00;0.70;;;17.20;99.90;;;;;;5024454;28;20064;-81
2022/05/25 12:34:41;;;;;;;1.92;0.63;;;17.10;99.90;;;;;;4970036;28;20153;-81
2022/05/25 12:37:10;;;;;;;1.88;1.00;;;17.30;99.90;;;;;;4957987;28;20045;-84
2022/05/25 12:39:43;;;;;;;0.98;0.85;;;17.60;99.90;;;;;;4972870;28;20162;-79
2022/05/25 12:42:22;;;;;;;1.80;0.90;;;17.90;99.90;;;;;;5018702;28;20053;-82
2022/05/25 12:48:30;;;;;;;1.97;1.00;;;18.20;99.90;;;;;;5000425;28;20053;-83
2022/05/25 12:51:26;;;;;;;1.52;0.60;;;18.20;99.90;;;;;;5000765;28;20555;-82
2022/05/25 12:53:53;;;;;;;2.28;0.82;;;18.10;99.90;;;;;;5009311;28;20191;-82
2022/05/25 12:56:19;;;;;;;2.42;0.85;;;17.90;99.90;;;;;;5023231;28;20053;-85
2022/05/25 12:58:47;;;;;;;1.83;0.70;;;17.80;99.90;;;;;;5022465;28;20477;-81
2022/05/25 13:01:14;;;;;;;2.92;0.98;;;17.70;99.90;;;;;;5006832;28;20049;-82
2022/05/25 13:03:42;;;;;;;1.25;0.60;;;17.80;99.90;;;;;;5021794;28;20073;-81
2022/05/25 13:06:10;;;;;;;0.77;0.55;;;17.70;99.90;;;;;;4987025;28;20437;-80
2022/05/25 13:08:49;;;;;;;1.48;0.43;;;17.70;99.90;;;;;;4991693;28;20088;-83
2022/05/25 13:11:40;;;;;;;1.42;0.73;;;17.50;99.90;;;;;;5021180;28;20049;-84
2022/05/25 13:14:35;;;;;;;0.80;0.52;;;17.20;99.90;;;;;;5005289;28;20136;-85
2022/05/25 13:17:03;;;;;;;1.80;0.68;;;17.00;99.90;;;;;;5023946;28;20049;-82
2022/05/25 13:19:43;;;;;;;1.15;0.68;;;16.90;99.90;;;;;;5006010;28;20144;-83
2022/05/25 13:22:14;;;;;;;2.67;0.57;;;16.80;99.90;;;;;;4990227;28;20133;-83
2022/05/25 13:25:03;;;;;;;1.30;0.60;;;16.80;99.90;;;;;;4993861;28;20428;-80
2022/05/25 13:27:58;;;;;;;0.65;0.52;;;16.90;99.90;;;;;;5024169;28;20472;-81
2022/05/25 13:30:29;;;;;;;0.75;0.40;;;16.90;99.90;;;;;;5006761;28;20081;-80
2022/05/25 13:33:24;;;;;;;1.85;0.70;;;17.00;99.90;;;;;;4980355;28;20050;-81
2022/05/25 13:36:05;;;;;;;1.48;0.70;;;17.10;99.90;;;;;;4997536;28;20080;-81
2022/05/25 13:38:41;;;;;;;1.10;0.70;;;17.50;99.90;;;;;;5007419;28;20049;-83
2022/05/25 13:41:12;;;;;;;1.92;0.77;;;17.70;99.90;;;;;;5007143;28;20053;-84
2022/05/25 13:43:50;;;;;;;2.75;0.77;;;17.70;99.90;;;;;;4990189;28;20144;-84
2022/05/25 13:46:42;;;;;;;1.40;0.90;;;17.70;99.90;;;;;;4984870;28;20077;-80